sensor_id;sensor_type;location;lat;lon;timestamp;P1;durP1;ratioP1;P2;durP2;ratioP2
59876;SDS011;45749;51.140;17.184;2022-09-09T00:04:38;10.53;;;9.10;;
59876;SDS011;45749;51.140;17.184;2022-09-09T00:15:26;12.45;;;10.15;;
59876;SDS011;45749;51.140;17.184;2022-09-09T00:21:05;12.03;;;9.93;;
59876;SDS011;45749;51.140;17.184;2022-09-09T00:23:34;11.00;;;9.85;;
59876;SDS011;45749;51.140;17.184;2022-09-09T00:26:08;11.70;;;10.03;;
59876;SDS011;45749;51.140;17.184;2022-09-09T00:29:10;14.78;;;11.18;;
59876;SDS011;45749;51.140;17.184;2022-09-09T00:31:39;11.75;;;9.80;;
59876;SDS011;45749;51.140;17.184;2022-09-09T00:34:09;11.45;;;10.03;;
59876;SDS011;45749;51.140;17.184;2022-09-09T00:36:43;10.93;;;9.43;;
59876;SDS011;45749;51.140;17.184;2022-09-09T00:39:44;10.98;;;8.83;;
59876;SDS011;45749;51.140;17.184;2022-09-09T00:42:41;9.38;;;8.23;;
59876;SDS011;45749;51.140;17.184;2022-09-09T00:48:14;7.03;;;6.33;;
59876;SDS011;45749;51.140;17.184;2022-09-09T00:50:54;9.15;;;7.60;;
59876;SDS011;45749;51.140;17.184;2022-09-09T00:56:14;8.78;;;7.45;;
59876;SDS011;45749;51.140;17.184;2022-09-09T00:58:54;7.50;;;6.70;;
59876;SDS011;45749;51.140;17.184;2022-09-09T01:01:32;7.70;;;6.90;;
59876;SDS011;45749;51.140;17.184;2022-09-09T01:04:00;6.78;;;5.70;;
59876;SDS011;45749;51.140;17.184;2022-09-09T01:06:32;5.42;;;4.87;;
59876;SDS011;45749;51.140;17.184;2022-09-09T01:11:55;9.93;;;6.17;;
59876;SDS011;45749;51.140;17.184;2022-09-09T01:20:05;7.97;;;6.22;;
59876;SDS011;45749;51.140;17.184;2022-09-09T01:28:47;5.55;;;4.70;;
59876;SDS011;45749;51.140;17.184;2022-09-09T01:31:23;5.45;;;4.95;;
59876;SDS011;45749;51.140;17.184;2022-09-09T01:33:48;7.05;;;5.15;;
59876;SDS011;45749;51.140;17.184;2022-09-09T01:39:09;8.20;;;5.70;;
59876;SDS011;45749;51.140;17.184;2022-09-09T01:41:36;6.08;;;5.25;;
59876;SDS011;45749;51.140;17.184;2022-09-09T01:44:02;7.80;;;4.70;;
59876;SDS011;45749;51.140;17.184;2022-09-09T01:46:29;7.33;;;6.65;;
59876;SDS011;45749;51.140;17.184;2022-09-09T01:48:55;9.90;;;7.22;;
59876;SDS011;45749;51.140;17.184;2022-09-09T01:51:24;6.72;;;5.87;;
59876;SDS011;45749;51.140;17.184;2022-09-09T01:53:50;7.53;;;6.67;;
59876;SDS011;45749;51.140;17.184;2022-09-09T01:59:07;6.20;;;5.45;;
59876;SDS011;45749;51.140;17.184;2022-09-09T02:04:50;6.45;;;5.47;;
59876;SDS011;45749;51.140;17.184;2022-09-09T02:07:40;7.12;;;6.05;;
59876;SDS011;45749;51.140;17.184;2022-09-09T02:10:10;6.67;;;5.90;;
59876;SDS011;45749;51.140;17.184;2022-09-09T02:12:50;7.95;;;5.50;;
59876;SDS011;45749;51.140;17.184;2022-09-09T02:15:26;7.03;;;4.80;;
59876;SDS011;45749;51.140;17.184;2022-09-09T02:18:01;5.45;;;4.95;;
59876;SDS011;45749;51.140;17.184;2022-09-09T02:20:33;6.12;;;5.53;;
59876;SDS011;45749;51.140;17.184;2022-09-09T02:23:02;7.17;;;4.95;;
59876;SDS011;45749;51.140;17.184;2022-09-09T02:25:31;5.80;;;5.25;;
59876;SDS011;45749;51.140;17.184;2022-09-09T02:28:00;5.40;;;4.80;;
59876;SDS011;45749;51.140;17.184;2022-09-09T02:30:29;5.58;;;5.03;;
59876;SDS011;45749;51.140;17.184;2022-09-09T02:32:57;5.15;;;4.65;;
59876;SDS011;45749;51.140;17.184;2022-09-09T02:35:27;5.83;;;4.72;;
59876;SDS011;45749;51.140;17.184;2022-09-09T02:37:56;6.37;;;4.78;;
59876;SDS011;45749;51.140;17.184;2022-09-09T02:40:26;7.22;;;4.40;;
59876;SDS011;45749;51.140;17.184;2022-09-09T02:42:53;6.22;;;4.87;;
59876;SDS011;45749;51.140;17.184;2022-09-09T02:45:22;5.75;;;4.58;;
59876;SDS011;45749;51.140;17.184;2022-09-09T02:48:03;4.87;;;4.15;;
59876;SDS011;45749;51.140;17.184;2022-09-09T02:50:49;5.30;;;4.40;;
59876;SDS011;45749;51.140;17.184;2022-09-09T02:53:33;4.53;;;3.85;;
59876;SDS011;45749;51.140;17.184;2022-09-09T02:56:13;6.40;;;4.50;;
59876;SDS011;45749;51.140;17.184;2022-09-09T02:58:40;10.55;;;5.12;;
59876;SDS011;45749;51.140;17.184;2022-09-09T03:01:07;3.67;;;3.37;;
59876;SDS011;45749;51.140;17.184;2022-09-09T03:03:34;4.97;;;3.83;;
59876;SDS011;45749;51.140;17.184;2022-09-09T03:06:00;4.45;;;4.05;;
59876;SDS011;45749;51.140;17.184;2022-09-09T03:08:26;5.72;;;4.37;;
59876;SDS011;45749;51.140;17.184;2022-09-09T03:10:54;6.25;;;4.35;;
59876;SDS011;45749;51.140;17.184;2022-09-09T03:13:21;4.75;;;3.62;;
59876;SDS011;45749;51.140;17.184;2022-09-09T03:15:47;8.25;;;3.80;;
59876;SDS011;45749;51.140;17.184;2022-09-09T03:18:13;4.62;;;3.35;;
59876;SDS011;45749;51.140;17.184;2022-09-09T03:20:40;6.72;;;3.52;;
59876;SDS011;45749;51.140;17.184;2022-09-09T03:23:07;5.22;;;3.95;;
59876;SDS011;45749;51.140;17.184;2022-09-09T03:25:34;3.95;;;3.60;;
59876;SDS011;45749;51.140;17.184;2022-09-09T03:28:01;3.95;;;3.55;;
59876;SDS011;45749;51.140;17.184;2022-09-09T03:30:27;4.42;;;4.03;;
59876;SDS011;45749;51.140;17.184;2022-09-09T03:32:54;5.17;;;4.55;;
59876;SDS011;45749;51.140;17.184;2022-09-09T03:35:20;7.03;;;5.28;;
59876;SDS011;45749;51.140;17.184;2022-09-09T03:37:46;5.47;;;5.00;;
59876;SDS011;45749;51.140;17.184;2022-09-09T03:40:13;7.85;;;5.72;;
59876;SDS011;45749;51.140;17.184;2022-09-09T03:42:40;6.00;;;4.78;;
59876;SDS011;45749;51.140;17.184;2022-09-09T03:45:07;7.90;;;5.53;;
59876;SDS011;45749;51.140;17.184;2022-09-09T03:47:35;7.55;;;6.80;;
59876;SDS011;45749;51.140;17.184;2022-09-09T03:50:02;6.28;;;5.33;;
59876;SDS011;45749;51.140;17.184;2022-09-09T03:52:29;5.47;;;4.97;;
59876;SDS011;45749;51.140;17.184;2022-09-09T03:54:56;5.10;;;4.60;;
59876;SDS011;45749;51.140;17.184;2022-09-09T03:57:22;5.50;;;5.00;;
59876;SDS011;45749;51.140;17.184;2022-09-09T03:59:48;4.90;;;4.50;;
59876;SDS011;45749;51.140;17.184;2022-09-09T04:02:13;5.90;;;5.35;;
59876;SDS011;45749;51.140;17.184;2022-09-09T04:04:40;5.97;;;5.22;;
59876;SDS011;45749;51.140;17.184;2022-09-09T04:07:06;5.25;;;4.37;;
59876;SDS011;45749;51.140;17.184;2022-09-09T04:09:32;5.60;;;4.60;;
59876;SDS011;45749;51.140;17.184;2022-09-09T04:11:58;5.35;;;4.12;;
59876;SDS011;45749;51.140;17.184;2022-09-09T04:14:24;4.60;;;4.20;;
59876;SDS011;45749;51.140;17.184;2022-09-09T04:16:52;6.15;;;4.15;;
59876;SDS011;45749;51.140;17.184;2022-09-09T04:19:18;3.90;;;3.25;;
59876;SDS011;45749;51.140;17.184;2022-09-09T04:21:43;8.45;;;3.80;;
59876;SDS011;45749;51.140;17.184;2022-09-09T04:24:09;5.12;;;4.62;;
59876;SDS011;45749;51.140;17.184;2022-09-09T04:26:36;4.05;;;3.65;;
59876;SDS011;45749;51.140;17.184;2022-09-09T04:29:03;4.65;;;4.15;;
59876;SDS011;45749;51.140;17.184;2022-09-09T04:31:29;5.03;;;4.53;;
59876;SDS011;45749;51.140;17.184;2022-09-09T04:33:57;4.40;;;4.00;;
59876;SDS011;45749;51.140;17.184;2022-09-09T04:36:23;4.30;;;3.92;;
59876;SDS011;45749;51.140;17.184;2022-09-09T04:38:49;4.70;;;4.28;;
59876;SDS011;45749;51.140;17.184;2022-09-09T04:41:15;5.72;;;3.98;;
59876;SDS011;45749;51.140;17.184;2022-09-09T04:43:41;4.10;;;3.70;;
59876;SDS011;45749;51.140;17.184;2022-09-09T04:46:08;4.85;;;4.30;;
59876;SDS011;45749;51.140;17.184;2022-09-09T04:48:34;4.22;;;3.83;;
59876;SDS011;45749;51.140;17.184;2022-09-09T04:51:01;4.50;;;4.05;;
59876;SDS011;45749;51.140;17.184;2022-09-09T04:53:30;5.95;;;4.20;;
59876;SDS011;45749;51.140;17.184;2022-09-09T04:56:07;5.35;;;4.85;;
59876;SDS011;45749;51.140;17.184;2022-09-09T04:58:38;5.35;;;4.85;;
59876;SDS011;45749;51.140;17.184;2022-09-09T05:01:10;5.58;;;4.92;;
59876;SDS011;45749;51.140;17.184;2022-09-09T05:03:42;5.67;;;4.80;;
59876;SDS011;45749;51.140;17.184;2022-09-09T05:06:11;5.50;;;4.72;;
59876;SDS011;45749;51.140;17.184;2022-09-09T05:08:40;4.95;;;4.55;;
59876;SDS011;45749;51.140;17.184;2022-09-09T05:11:17;6.50;;;4.85;;
59876;SDS011;45749;51.140;17.184;2022-09-09T05:16:17;8.63;;;4.17;;
59876;SDS011;45749;51.140;17.184;2022-09-09T05:18:44;5.30;;;4.80;;
59876;SDS011;45749;51.140;17.184;2022-09-09T05:21:11;5.12;;;4.55;;
59876;SDS011;45749;51.140;17.184;2022-09-09T05:23:39;5.87;;;5.33;;
59876;SDS011;45749;51.140;17.184;2022-09-09T05:26:05;6.35;;;5.67;;
59876;SDS011;45749;51.140;17.184;2022-09-09T05:28:36;5.00;;;4.50;;
59876;SDS011;45749;51.140;17.184;2022-09-09T05:31:05;5.40;;;4.90;;
59876;SDS011;45749;51.140;17.184;2022-09-09T05:33:34;5.47;;;4.97;;
59876;SDS011;45749;51.140;17.184;2022-09-09T05:36:06;5.80;;;5.30;;
59876;SDS011;45749;51.140;17.184;2022-09-09T05:38:31;7.28;;;5.62;;
59876;SDS011;45749;51.140;17.184;2022-09-09T05:40:58;6.35;;;5.75;;
59876;SDS011;45749;51.140;17.184;2022-09-09T05:43:25;6.20;;;5.60;;
59876;SDS011;45749;51.140;17.184;2022-09-09T05:45:59;6.08;;;5.47;;
59876;SDS011;45749;51.140;17.184;2022-09-09T05:48:31;7.10;;;5.78;;
59876;SDS011;45749;51.140;17.184;2022-09-09T05:53:27;5.90;;;5.40;;
59876;SDS011;45749;51.140;17.184;2022-09-09T05:56:03;7.55;;;6.80;;
59876;SDS011;45749;51.140;17.184;2022-09-09T05:58:32;6.90;;;6.30;;
59876;SDS011;45749;51.140;17.184;2022-09-09T06:01:22;8.10;;;6.47;;
59876;SDS011;45749;51.140;17.184;2022-09-09T06:03:36;7.95;;;6.42;;
59876;SDS011;45749;51.140;17.184;2022-09-09T06:06:05;8.53;;;7.33;;
59876;SDS011;45749;51.140;17.184;2022-09-09T06:08:38;7.60;;;6.90;;
59876;SDS011;45749;51.140;17.184;2022-09-09T06:11:07;10.85;;;8.83;;
59876;SDS011;45749;51.140;17.184;2022-09-09T06:13:37;10.03;;;8.50;;
59876;SDS011;45749;51.140;17.184;2022-09-09T06:16:05;8.38;;;7.67;;
59876;SDS011;45749;51.140;17.184;2022-09-09T06:18:36;9.53;;;8.40;;
59876;SDS011;45749;51.140;17.184;2022-09-09T06:21:04;10.82;;;8.73;;
59876;SDS011;45749;51.140;17.184;2022-09-09T06:23:33;9.75;;;8.58;;
59876;SDS011;45749;51.140;17.184;2022-09-09T06:26:06;12.37;;;8.05;;
59876;SDS011;45749;51.140;17.184;2022-09-09T06:28:37;7.50;;;6.78;;
59876;SDS011;45749;51.140;17.184;2022-09-09T06:31:05;8.10;;;7.30;;
59876;SDS011;45749;51.140;17.184;2022-09-09T06:33:35;10.25;;;7.97;;
59876;SDS011;45749;51.140;17.184;2022-09-09T06:36:06;8.08;;;7.33;;
59876;SDS011;45749;51.140;17.184;2022-09-09T06:38:40;9.05;;;7.87;;
59876;SDS011;45749;51.140;17.184;2022-09-09T06:41:08;7.10;;;6.30;;
59876;SDS011;45749;51.140;17.184;2022-09-09T06:43:35;9.30;;;7.05;;
59876;SDS011;45749;51.140;17.184;2022-09-09T06:46:03;8.00;;;7.15;;
59876;SDS011;45749;51.140;17.184;2022-09-09T06:48:33;7.87;;;7.15;;
59876;SDS011;45749;51.140;17.184;2022-09-09T06:53:49;11.38;;;7.67;;
59876;SDS011;45749;51.140;17.184;2022-09-09T06:58:48;7.10;;;6.50;;
59876;SDS011;45749;51.140;17.184;2022-09-09T07:01:24;7.85;;;7.00;;
59876;SDS011;45749;51.140;17.184;2022-09-09T07:03:51;6.92;;;6.33;;
59876;SDS011;45749;51.140;17.184;2022-09-09T07:06:23;7.30;;;6.60;;
59876;SDS011;45749;51.140;17.184;2022-09-09T07:08:52;6.30;;;5.72;;
59876;SDS011;45749;51.140;17.184;2022-09-09T07:11:21;7.03;;;6.30;;
59876;SDS011;45749;51.140;17.184;2022-09-09T07:13:48;6.80;;;6.10;;
59876;SDS011;45749;51.140;17.184;2022-09-09T07:16:16;11.30;;;8.03;;
59876;SDS011;45749;51.140;17.184;2022-09-09T07:18:45;8.13;;;6.62;;
59876;SDS011;45749;51.140;17.184;2022-09-09T07:21:12;8.45;;;6.78;;
59876;SDS011;45749;51.140;17.184;2022-09-09T07:23:41;9.10;;;6.80;;
59876;SDS011;45749;51.140;17.184;2022-09-09T07:26:12;8.48;;;6.83;;
59876;SDS011;45749;51.140;17.184;2022-09-09T07:28:37;9.03;;;5.92;;
59876;SDS011;45749;51.140;17.184;2022-09-09T07:31:04;7.08;;;5.75;;
59876;SDS011;45749;51.140;17.184;2022-09-09T07:33:31;7.83;;;5.28;;
59876;SDS011;45749;51.140;17.184;2022-09-09T07:36:06;5.58;;;4.37;;
59876;SDS011;45749;51.140;17.184;2022-09-09T07:38:40;5.05;;;3.95;;
59876;SDS011;45749;51.140;17.184;2022-09-09T07:41:12;4.80;;;4.40;;
59876;SDS011;45749;51.140;17.184;2022-09-09T07:43:41;5.80;;;4.10;;
59876;SDS011;45749;51.140;17.184;2022-09-09T07:46:10;5.00;;;3.52;;
59876;SDS011;45749;51.140;17.184;2022-09-09T07:48:38;4.47;;;3.67;;
59876;SDS011;45749;51.140;17.184;2022-09-09T07:51:12;4.80;;;3.75;;
59876;SDS011;45749;51.140;17.184;2022-09-09T07:53:38;4.28;;;3.40;;
59876;SDS011;45749;51.140;17.184;2022-09-09T07:56:06;5.75;;;4.85;;
59876;SDS011;45749;51.140;17.184;2022-09-09T07:58:35;7.92;;;4.70;;
59876;SDS011;45749;51.140;17.184;2022-09-09T08:01:07;5.60;;;3.47;;
59876;SDS011;45749;51.140;17.184;2022-09-09T08:03:36;5.28;;;3.50;;
59876;SDS011;45749;51.140;17.184;2022-09-09T08:06:04;3.98;;;2.77;;
59876;SDS011;45749;51.140;17.184;2022-09-09T08:08:34;3.72;;;3.42;;
59876;SDS011;45749;51.140;17.184;2022-09-09T08:11:02;4.28;;;3.20;;
59876;SDS011;45749;51.140;17.184;2022-09-09T08:13:35;3.62;;;2.80;;
59876;SDS011;45749;51.140;17.184;2022-09-09T08:16:10;2.67;;;2.47;;
59876;SDS011;45749;51.140;17.184;2022-09-09T08:18:36;7.97;;;3.60;;
59876;SDS011;45749;51.140;17.184;2022-09-09T08:21:08;4.40;;;2.70;;
59876;SDS011;45749;51.140;17.184;2022-09-09T08:23:43;4.55;;;3.35;;
59876;SDS011;45749;51.140;17.184;2022-09-09T08:28:41;3.58;;;2.87;;
59876;SDS011;45749;51.140;17.184;2022-09-09T08:31:12;4.17;;;2.25;;
59876;SDS011;45749;51.140;17.184;2022-09-09T08:33:42;4.83;;;3.08;;
59876;SDS011;45749;51.140;17.184;2022-09-09T08:36:15;4.25;;;2.17;;
59876;SDS011;45749;51.140;17.184;2022-09-09T08:38:47;2.67;;;2.22;;
59876;SDS011;45749;51.140;17.184;2022-09-09T08:53:09;4.03;;;2.40;;
59876;SDS011;45749;51.140;17.184;2022-09-09T08:58:17;2.85;;;2.22;;
59876;SDS011;45749;51.140;17.184;2022-09-09T09:15:54;2.00;;;1.80;;
59876;SDS011;45749;51.140;17.184;2022-09-09T09:18:23;3.77;;;1.82;;
59876;SDS011;45749;51.140;17.184;2022-09-09T09:23:48;2.90;;;1.70;;
59876;SDS011;45749;51.140;17.184;2022-09-09T09:26:33;2.33;;;1.40;;
59876;SDS011;45749;51.140;17.184;2022-09-09T09:29:03;5.53;;;1.40;;
59876;SDS011;45749;51.140;17.184;2022-09-09T09:31:38;2.90;;;1.95;;
59876;SDS011;45749;51.140;17.184;2022-09-09T09:34:04;2.47;;;1.20;;
59876;SDS011;45749;51.140;17.184;2022-09-09T09:36:35;3.60;;;1.50;;
59876;SDS011;45749;51.140;17.184;2022-09-09T09:39:07;1.45;;;1.35;;
59876;SDS011;45749;51.140;17.184;2022-09-09T09:41:36;2.42;;;1.20;;
59876;SDS011;45749;51.140;17.184;2022-09-09T09:44:05;1.62;;;1.35;;
59876;SDS011;45749;51.140;17.184;2022-09-09T09:49:13;2.27;;;1.32;;
59876;SDS011;45749;51.140;17.184;2022-09-09T09:51:39;2.70;;;1.20;;
59876;SDS011;45749;51.140;17.184;2022-09-09T09:56:52;2.83;;;1.37;;
59876;SDS011;45749;51.140;17.184;2022-09-09T09:59:23;3.22;;;1.00;;
59876;SDS011;45749;51.140;17.184;2022-09-09T10:05:02;3.92;;;1.65;;
59876;SDS011;45749;51.140;17.184;2022-09-09T10:07:31;1.90;;;1.07;;
59876;SDS011;45749;51.140;17.184;2022-09-09T10:09:58;7.97;;;3.15;;
59876;SDS011;45749;51.140;17.184;2022-09-09T10:12:29;1.77;;;1.67;;
59876;SDS011;45749;51.140;17.184;2022-09-09T10:27:17;1.80;;;1.17;;
59876;SDS011;45749;51.140;17.184;2022-09-09T10:30:18;2.22;;;1.35;;
59876;SDS011;45749;51.140;17.184;2022-09-09T10:33:08;2.12;;;0.82;;
59876;SDS011;45749;51.140;17.184;2022-09-09T10:44:12;2.20;;;0.98;;
59876;SDS011;45749;51.140;17.184;2022-09-09T10:47:02;1.80;;;1.02;;
59876;SDS011;45749;51.140;17.184;2022-09-09T10:55:23;1.95;;;1.30;;
59876;SDS011;45749;51.140;17.184;2022-09-09T10:57:52;2.52;;;1.25;;
59876;SDS011;45749;51.140;17.184;2022-09-09T11:00:23;3.72;;;2.02;;
59876;SDS011;45749;51.140;17.184;2022-09-09T11:03:03;2.87;;;1.42;;
59876;SDS011;45749;51.140;17.184;2022-09-09T11:08:26;3.17;;;1.20;;
59876;SDS011;45749;51.140;17.184;2022-09-09T11:11:09;3.17;;;1.20;;
59876;SDS011;45749;51.140;17.184;2022-09-09T11:14:12;2.83;;;1.07;;
59876;SDS011;45749;51.140;17.184;2022-09-09T11:16:49;2.67;;;1.10;;
59876;SDS011;45749;51.140;17.184;2022-09-09T11:21:53;1.10;;;0.95;;
59876;SDS011;45749;51.140;17.184;2022-09-09T11:24:23;3.58;;;1.40;;
59876;SDS011;45749;51.140;17.184;2022-09-09T11:26:55;2.02;;;0.82;;
59876;SDS011;45749;51.140;17.184;2022-09-09T11:32:48;2.45;;;1.10;;
59876;SDS011;45749;51.140;17.184;2022-09-09T11:41:14;2.42;;;1.25;;
59876;SDS011;45749;51.140;17.184;2022-09-09T11:43:43;1.75;;;1.00;;
59876;SDS011;45749;51.140;17.184;2022-09-09T11:46:17;5.20;;;1.05;;
59876;SDS011;45749;51.140;17.184;2022-09-09T11:49:02;1.15;;;0.78;;
59876;SDS011;45749;51.140;17.184;2022-09-09T11:51:27;3.50;;;1.52;;
59876;SDS011;45749;51.140;17.184;2022-09-09T11:53:56;3.98;;;1.22;;
59876;SDS011;45749;51.140;17.184;2022-09-09T11:56:45;1.30;;;0.80;;
59876;SDS011;45749;51.140;17.184;2022-09-09T11:59:25;2.15;;;1.15;;
59876;SDS011;45749;51.140;17.184;2022-09-09T12:04:33;2.98;;;0.98;;
59876;SDS011;45749;51.140;17.184;2022-09-09T12:12:55;15.40;;;2.45;;
59876;SDS011;45749;51.140;17.184;2022-09-09T12:15:23;6.40;;;1.52;;
59876;SDS011;45749;51.140;17.184;2022-09-09T12:17:52;1.50;;;0.88;;
59876;SDS011;45749;51.140;17.184;2022-09-09T12:20:23;1.15;;;0.90;;
59876;SDS011;45749;51.140;17.184;2022-09-09T12:32:12;4.90;;;1.60;;
59876;SDS011;45749;51.140;17.184;2022-09-09T12:34:52;7.62;;;2.12;;
59876;SDS011;45749;51.140;17.184;2022-09-09T12:40:24;2.67;;;1.05;;
59876;SDS011;45749;51.140;17.184;2022-09-09T12:42:52;1.77;;;1.00;;
59876;SDS011;45749;51.140;17.184;2022-09-09T12:45:21;1.47;;;0.98;;
59876;SDS011;45749;51.140;17.184;2022-09-09T12:47:51;2.37;;;1.42;;
59876;SDS011;45749;51.140;17.184;2022-09-09T12:50:36;2.87;;;0.98;;
59876;SDS011;45749;51.140;17.184;2022-09-09T12:53:10;1.52;;;1.00;;
59876;SDS011;45749;51.140;17.184;2022-09-09T12:55:52;1.80;;;0.90;;
59876;SDS011;45749;51.140;17.184;2022-09-09T12:58:28;1.67;;;1.25;;
59876;SDS011;45749;51.140;17.184;2022-09-09T13:00:59;2.60;;;1.30;;
59876;SDS011;45749;51.140;17.184;2022-09-09T13:03:29;4.97;;;0.82;;
59876;SDS011;45749;51.140;17.184;2022-09-09T13:05:57;1.65;;;0.70;;
59876;SDS011;45749;51.140;17.184;2022-09-09T13:08:25;1.80;;;0.60;;
59876;SDS011;45749;51.140;17.184;2022-09-09T13:11:03;2.20;;;0.95;;
59876;SDS011;45749;51.140;17.184;2022-09-09T13:13:36;1.82;;;0.93;;
59876;SDS011;45749;51.140;17.184;2022-09-09T13:16:07;3.50;;;1.05;;
59876;SDS011;45749;51.140;17.184;2022-09-09T13:18:52;2.67;;;0.98;;
59876;SDS011;45749;51.140;17.184;2022-09-09T13:21:18;2.33;;;1.00;;
59876;SDS011;45749;51.140;17.184;2022-09-09T13:23:49;2.35;;;0.98;;
59876;SDS011;45749;51.140;17.184;2022-09-09T13:26:24;2.80;;;0.93;;
59876;SDS011;45749;51.140;17.184;2022-09-09T13:28:54;4.47;;;1.10;;
59876;SDS011;45749;51.140;17.184;2022-09-09T13:31:44;1.57;;;0.70;;
59876;SDS011;45749;51.140;17.184;2022-09-09T13:34:12;0.98;;;0.62;;
59876;SDS011;45749;51.140;17.184;2022-09-09T13:36:41;2.95;;;0.60;;
59876;SDS011;45749;51.140;17.184;2022-09-09T13:39:15;3.58;;;0.88;;
59876;SDS011;45749;51.140;17.184;2022-09-09T13:41:44;0.93;;;0.85;;
59876;SDS011;45749;51.140;17.184;2022-09-09T13:44:27;1.45;;;0.80;;
59876;SDS011;45749;51.140;17.184;2022-09-09T13:47:44;2.33;;;0.82;;
59876;SDS011;45749;51.140;17.184;2022-09-09T13:49:48;2.30;;;0.85;;
59876;SDS011;45749;51.140;17.184;2022-09-09T13:52:15;1.12;;;0.70;;
59876;SDS011;45749;51.140;17.184;2022-09-09T13:54:47;1.27;;;0.75;;
59876;SDS011;45749;51.140;17.184;2022-09-09T13:57:22;0.60;;;0.60;;
59876;SDS011;45749;51.140;17.184;2022-09-09T13:59:50;3.20;;;0.85;;
59876;SDS011;45749;51.140;17.184;2022-09-09T14:02:19;1.10;;;0.80;;
59876;SDS011;45749;51.140;17.184;2022-09-09T14:04:48;3.50;;;0.78;;
59876;SDS011;45749;51.140;17.184;2022-09-09T14:07:16;0.90;;;0.70;;
59876;SDS011;45749;51.140;17.184;2022-09-09T14:09:44;2.80;;;0.80;;
59876;SDS011;45749;51.140;17.184;2022-09-09T14:12:13;1.15;;;0.82;;
59876;SDS011;45749;51.140;17.184;2022-09-09T14:14:40;2.42;;;0.90;;
59876;SDS011;45749;51.140;17.184;2022-09-09T14:17:10;3.02;;;1.02;;
59876;SDS011;45749;51.140;17.184;2022-09-09T14:19:36;4.17;;;1.72;;
59876;SDS011;45749;51.140;17.184;2022-09-09T14:22:04;3.72;;;1.40;;
59876;SDS011;45749;51.140;17.184;2022-09-09T14:24:30;2.58;;;1.50;;
59876;SDS011;45749;51.140;17.184;2022-09-09T14:26:56;1.90;;;0.90;;
59876;SDS011;45749;51.140;17.184;2022-09-09T14:29:22;2.72;;;0.90;;
59876;SDS011;45749;51.140;17.184;2022-09-09T14:31:50;1.20;;;0.65;;
59876;SDS011;45749;51.140;17.184;2022-09-09T14:34:15;1.40;;;1.10;;
59876;SDS011;45749;51.140;17.184;2022-09-09T14:36:41;1.12;;;1.00;;
59876;SDS011;45749;51.140;17.184;2022-09-09T14:39:09;2.05;;;1.05;;
59876;SDS011;45749;51.140;17.184;2022-09-09T14:41:36;1.70;;;1.20;;
59876;SDS011;45749;51.140;17.184;2022-09-09T14:44:03;2.25;;;0.70;;
59876;SDS011;45749;51.140;17.184;2022-09-09T14:46:29;1.95;;;0.88;;
59876;SDS011;45749;51.140;17.184;2022-09-09T14:48:55;2.92;;;1.10;;
59876;SDS011;45749;51.140;17.184;2022-09-09T14:51:23;1.82;;;0.90;;
59876;SDS011;45749;51.140;17.184;2022-09-09T14:53:52;2.12;;;1.07;;
59876;SDS011;45749;51.140;17.184;2022-09-09T14:56:29;1.42;;;0.70;;
59876;SDS011;45749;51.140;17.184;2022-09-09T14:58:54;2.35;;;0.80;;
59876;SDS011;45749;51.140;17.184;2022-09-09T15:01:22;3.12;;;1.20;;
59876;SDS011;45749;51.140;17.184;2022-09-09T15:03:50;2.30;;;1.00;;
59876;SDS011;45749;51.140;17.184;2022-09-09T15:06:19;3.17;;;1.45;;
59876;SDS011;45749;51.140;17.184;2022-09-09T15:08:49;5.03;;;1.00;;
59876;SDS011;45749;51.140;17.184;2022-09-09T15:11:17;5.65;;;2.30;;
59876;SDS011;45749;51.140;17.184;2022-09-09T15:13:45;4.85;;;2.65;;
59876;SDS011;45749;51.140;17.184;2022-09-09T15:16:16;3.05;;;1.90;;
59876;SDS011;45749;51.140;17.184;2022-09-09T15:18:44;4.12;;;1.77;;
59876;SDS011;45749;51.140;17.184;2022-09-09T15:21:13;5.20;;;2.60;;
59876;SDS011;45749;51.140;17.184;2022-09-09T15:23:44;2.67;;;1.80;;
59876;SDS011;45749;51.140;17.184;2022-09-09T15:26:12;3.72;;;1.35;;
59876;SDS011;45749;51.140;17.184;2022-09-09T15:28:42;2.58;;;1.65;;
59876;SDS011;45749;51.140;17.184;2022-09-09T15:31:14;2.37;;;1.90;;
59876;SDS011;45749;51.140;17.184;2022-09-09T15:33:49;6.20;;;2.92;;
59876;SDS011;45749;51.140;17.184;2022-09-09T15:36:18;4.75;;;1.87;;
59876;SDS011;45749;51.140;17.184;2022-09-09T15:38:47;2.77;;;1.90;;
59876;SDS011;45749;51.140;17.184;2022-09-09T15:41:14;6.20;;;2.87;;
59876;SDS011;45749;51.140;17.184;2022-09-09T15:43:45;5.10;;;2.37;;
59876;SDS011;45749;51.140;17.184;2022-09-09T15:48:54;3.08;;;1.37;;
59876;SDS011;45749;51.140;17.184;2022-09-09T15:51:25;3.37;;;1.60;;
59876;SDS011;45749;51.140;17.184;2022-09-09T15:53:56;6.20;;;4.03;;
59876;SDS011;45749;51.140;17.184;2022-09-09T15:56:24;6.60;;;3.65;;
59876;SDS011;45749;51.140;17.184;2022-09-09T15:58:52;3.85;;;1.90;;
59876;SDS011;45749;51.140;17.184;2022-09-09T16:01:19;3.87;;;2.08;;
59876;SDS011;45749;51.140;17.184;2022-09-09T16:03:45;3.70;;;1.60;;
59876;SDS011;45749;51.140;17.184;2022-09-09T16:06:12;3.77;;;1.98;;
59876;SDS011;45749;51.140;17.184;2022-09-09T16:08:44;3.12;;;1.50;;
59876;SDS011;45749;51.140;17.184;2022-09-09T16:11:14;4.17;;;1.65;;
59876;SDS011;45749;51.140;17.184;2022-09-09T16:13:44;2.08;;;1.20;;
59876;SDS011;45749;51.140;17.184;2022-09-09T16:16:14;5.35;;;1.72;;
59876;SDS011;45749;51.140;17.184;2022-09-09T16:18:42;2.98;;;1.40;;
59876;SDS011;45749;51.140;17.184;2022-09-09T16:21:19;3.35;;;1.67;;
59876;SDS011;45749;51.140;17.184;2022-09-09T16:23:44;6.17;;;1.57;;
59876;SDS011;45749;51.140;17.184;2022-09-09T16:26:12;2.85;;;1.42;;
59876;SDS011;45749;51.140;17.184;2022-09-09T16:28:40;2.00;;;1.40;;
59876;SDS011;45749;51.140;17.184;2022-09-09T16:31:07;1.52;;;1.17;;
59876;SDS011;45749;51.140;17.184;2022-09-09T16:33:36;4.75;;;1.70;;
59876;SDS011;45749;51.140;17.184;2022-09-09T16:36:06;3.67;;;1.10;;
59876;SDS011;45749;51.140;17.184;2022-09-09T16:38:35;3.42;;;1.65;;
59876;SDS011;45749;51.140;17.184;2022-09-09T16:41:03;3.10;;;1.30;;
59876;SDS011;45749;51.140;17.184;2022-09-09T16:43:34;2.58;;;1.32;;
59876;SDS011;45749;51.140;17.184;2022-09-09T16:46:02;1.87;;;1.30;;
59876;SDS011;45749;51.140;17.184;2022-09-09T16:48:31;3.08;;;1.27;;
59876;SDS011;45749;51.140;17.184;2022-09-09T16:51:06;4.72;;;1.57;;
59876;SDS011;45749;51.140;17.184;2022-09-09T16:53:35;3.92;;;1.17;;
59876;SDS011;45749;51.140;17.184;2022-09-09T16:56:05;2.92;;;1.17;;
59876;SDS011;45749;51.140;17.184;2022-09-09T16:58:33;4.05;;;2.00;;
59876;SDS011;45749;51.140;17.184;2022-09-09T17:01:02;3.58;;;1.50;;
59876;SDS011;45749;51.140;17.184;2022-09-09T17:03:30;3.10;;;1.67;;
59876;SDS011;45749;51.140;17.184;2022-09-09T17:05:58;3.75;;;1.72;;
59876;SDS011;45749;51.140;17.184;2022-09-09T17:08:26;3.65;;;2.12;;
59876;SDS011;45749;51.140;17.184;2022-09-09T17:10:53;3.02;;;2.72;;
59876;SDS011;45749;51.140;17.184;2022-09-09T17:13:19;5.35;;;2.20;;
59876;SDS011;45749;51.140;17.184;2022-09-09T17:15:45;2.20;;;1.55;;
59876;SDS011;45749;51.140;17.184;2022-09-09T17:18:11;1.82;;;1.57;;
59876;SDS011;45749;51.140;17.184;2022-09-09T17:20:38;3.40;;;2.17;;
59876;SDS011;45749;51.140;17.184;2022-09-09T17:23:06;4.37;;;2.60;;
59876;SDS011;45749;51.140;17.184;2022-09-09T17:25:34;4.28;;;2.30;;
59876;SDS011;45749;51.140;17.184;2022-09-09T17:28:01;2.67;;;1.90;;
59876;SDS011;45749;51.140;17.184;2022-09-09T17:30:36;4.00;;;2.30;;
59876;SDS011;45749;51.140;17.184;2022-09-09T17:33:03;7.47;;;3.30;;
59876;SDS011;45749;51.140;17.184;2022-09-09T17:35:30;4.80;;;3.10;;